Time;durP1;ratioP1;P1;durP2;ratioP2;P2;SDS_P1;SDS_P2;PMS_P1;PMS_P2;Temp;Humidity;BMP_temperature;BMP_pressure;BME280_temperature;BME280_humidity;BME280_pressure;Samples;Min_cycle;Max_cycle;Signal;HPM_P1;HPM_P2
2021/01/25 00:00:36;;;;;;;13.73;6.63;;;1.00;99.90;;;;;;4991769;28;20076;-66
2021/01/25 00:03:01;;;;;;;18.10;9.18;;;1.00;99.90;;;;;;4990343;28;20027;-65
2021/01/25 00:05:27;;;;;;;13.00;6.25;;;1.10;99.90;;;;;;4991825;28;20031;-65
2021/01/25 00:07:53;;;;;;;13.02;6.32;;;1.20;99.90;;;;;;4991718;28;20022;-66
2021/01/25 00:10:19;;;;;;;11.40;6.10;;;1.10;99.90;;;;;;4991762;28;20116;-66
2021/01/25 00:12:44;;;;;;;13.48;6.15;;;1.10;99.90;;;;;;4991398;28;20126;-65
2021/01/25 00:15:10;;;;;;;15.52;5.20;;;1.00;99.90;;;;;;4991698;28;20097;-65
2021/01/25 00:17:36;;;;;;;12.40;6.63;;;1.00;99.90;;;;;;4991798;28;20035;-65
2021/01/25 00:20:01;;;;;;;13.93;5.88;;;0.90;99.90;;;;;;4991768;28;20517;-65
2021/01/25 00:22:28;;;;;;;13.73;6.65;;;0.80;99.90;;;;;;4991409;28;20034;-65
2021/01/25 00:24:54;;;;;;;13.43;5.90;;;0.60;99.90;;;;;;4991610;28;20105;-66
2021/01/25 00:27:19;;;;;;;17.40;7.82;;;0.60;99.90;;;;;;5006612;28;20067;-66
2021/01/25 00:29:45;;;;;;;13.38;5.72;;;0.50;99.90;;;;;;4991517;28;20476;-66
2021/01/25 00:32:10;;;;;;;18.05;7.50;;;0.40;99.90;;;;;;4991216;28;20129;-65
2021/01/25 00:34:38;;;;;;;16.52;7.80;;;0.30;99.90;;;;;;4990237;28;20022;-66
2021/01/25 00:37:04;;;;;;;16.92;7.68;;;0.30;99.90;;;;;;4991334;28;20026;-65
2021/01/25 00:39:29;;;;;;;16.60;7.03;;;0.30;99.90;;;;;;4991428;28;20027;-67
2021/01/25 00:41:55;;;;;;;15.68;7.93;;;0.40;99.90;;;;;;4991106;28;20026;-66
2021/01/25 00:44:20;;;;;;;18.20;7.93;;;0.40;99.90;;;;;;4991374;28;20187;-66
2021/01/25 00:46:46;;;;;;;23.02;9.82;;;0.40;99.90;;;;;;4991444;28;20031;-66
2021/01/25 00:49:11;;;;;;;32.97;12.15;;;0.50;99.90;;;;;;4991367;28;20026;-66
2021/01/25 00:51:37;;;;;;;15.75;8.20;;;0.40;99.90;;;;;;4989873;28;20030;-66
2021/01/25 00:54:02;;;;;;;17.55;8.68;;;0.40;99.90;;;;;;4990884;28;20057;-66
2021/01/25 00:56:28;;;;;;;15.80;7.68;;;0.40;99.90;;;;;;4991291;28;20022;-66
2021/01/25 00:58:53;;;;;;;16.30;8.02;;;0.40;99.90;;;;;;4991309;28;20054;-66
2021/01/25 01:01:19;;;;;;;19.25;9.35;;;0.40;99.90;;;;;;4991398;28;20027;-66
2021/01/25 01:03:44;;;;;;;19.52;9.65;;;0.40;99.90;;;;;;4990936;28;20030;-66
2021/01/25 01:06:09;;;;;;;16.85;7.85;;;0.40;99.90;;;;;;4991565;28;20038;-66
2021/01/25 01:08:35;;;;;;;22.85;9.88;;;0.40;99.90;;;;;;4991184;28;20060;-66
2021/01/25 01:11:01;;;;;;;15.15;7.18;;;0.60;99.90;;;;;;4993718;28;20026;-66
2021/01/25 01:13:26;;;;;;;16.63;7.72;;;0.80;99.90;;;;;;4994551;28;20105;-65
2021/01/25 01:15:52;;;;;;;18.63;8.63;;;0.80;99.90;;;;;;4994741;28;20037;-66
2021/01/25 01:18:17;;;;;;;23.45;9.63;;;0.70;99.90;;;;;;4994832;28;20018;-66
2021/01/25 01:20:43;;;;;;;17.65;8.73;;;0.50;99.90;;;;;;4994795;28;20022;-66
2021/01/25 01:23:08;;;;;;;21.60;9.38;;;0.40;99.90;;;;;;4994389;28;20031;-66
2021/01/25 01:25:34;;;;;;;20.10;9.05;;;0.40;99.90;;;;;;4994594;28;20022;-66
2021/01/25 01:27:59;;;;;;;18.38;8.00;;;0.70;99.90;;;;;;4994610;28;20401;-66
2021/01/25 01:30:25;;;;;;;15.25;7.18;;;0.80;99.90;;;;;;4994593;28;20042;-65
2021/01/25 01:32:51;;;;;;;17.85;7.35;;;0.70;99.90;;;;;;4994259;28;20018;-66
2021/01/25 01:35:17;;;;;;;18.02;7.72;;;0.70;99.90;;;;;;4994469;28;20102;-66
2021/01/25 01:37:42;;;;;;;17.75;8.25;;;0.60;99.90;;;;;;4993993;28;20378;-66
2021/01/25 01:40:11;;;;;;;15.30;7.72;;;0.30;99.90;;;;;;4994368;28;20101;-66
2021/01/25 01:42:37;;;;;;;18.63;6.38;;;0.50;99.90;;;;;;4994103;28;20022;-67
2021/01/25 01:45:04;;;;;;;15.27;7.30;;;0.40;99.90;;;;;;4994281;28;20105;-66
2021/01/25 01:47:31;;;;;;;17.38;6.78;;;0.00;99.90;;;;;;4994321;28;20018;-66
2021/01/25 01:49:57;;;;;;;31.63;11.38;;;-0.40;99.90;;;;;;4992885;28;20413;-66
2021/01/25 01:52:23;;;;;;;18.92;7.95;;;-0.50;99.90;;;;;;4993884;28;20038;-66
2021/01/25 01:54:50;;;;;;;13.95;7.15;;;-0.50;99.90;;;;;;4992656;28;20560;-66
2021/01/25 01:57:16;;;;;;;13.48;6.80;;;-0.10;99.90;;;;;;4994089;28;20026;-66
2021/01/25 01:59:42;;;;;;;14.80;6.57;;;0.00;99.90;;;;;;4994223;28;20610;-65
2021/01/25 02:02:08;;;;;;;14.07;6.60;;;-0.10;99.90;;;;;;4993815;28;20031;-65
2021/01/25 02:04:34;;;;;;;14.52;5.80;;;-0.10;99.90;;;;;;4993924;28;20026;-65
2021/01/25 02:07:02;;;;;;;13.95;6.47;;;-0.20;99.90;;;;;;4993984;28;20532;-66
2021/01/25 02:09:30;;;;;;;16.83;7.35;;;-0.20;99.90;;;;;;4993941;28;20389;-65
2021/01/25 02:11:56;;;;;;;17.92;6.80;;;-0.10;99.90;;;;;;4993553;28;20040;-65
2021/01/25 02:14:22;;;;;;;15.73;6.13;;;-0.20;99.90;;;;;;4993665;28;20058;-65
2021/01/25 02:16:48;;;;;;;12.25;5.03;;;-0.30;99.90;;;;;;4992459;28;20027;-65
2021/01/25 02:19:17;;;;;;;15.57;6.28;;;-0.30;99.90;;;;;;4993660;28;20029;-66
2021/01/25 02:22:03;;;;;;;14.65;6.80;;;-0.40;99.90;;;;;;4992446;28;20027;-65
2021/01/25 02:24:39;;;;;;;15.40;6.50;;;-0.50;99.90;;;;;;4993640;28;20038;-65
2021/01/25 02:27:14;;;;;;;15.90;7.10;;;-0.50;99.90;;;;;;4994016;28;20413;-65
2021/01/25 02:29:42;;;;;;;15.23;6.28;;;-0.50;99.90;;;;;;4993634;28;20080;-65
2021/01/25 02:32:08;;;;;;;15.63;6.78;;;-0.50;99.90;;;;;;4993440;28;20084;-65
2021/01/25 02:34:34;;;;;;;17.73;7.30;;;-0.60;99.90;;;;;;4993693;28;20027;-66
2021/01/25 02:37:01;;;;;;;16.20;7.30;;;-0.70;99.90;;;;;;4993219;28;20070;-65
2021/01/25 02:39:29;;;;;;;17.38;7.40;;;-0.70;99.90;;;;;;4993586;28;20037;-65
2021/01/25 02:41:54;;;;;;;17.50;8.45;;;-0.90;99.90;;;;;;4992115;28;20018;-66
2021/01/25 02:44:21;;;;;;;16.90;7.63;;;-0.80;99.90;;;;;;4993674;28;20029;-66
2021/01/25 02:46:46;;;;;;;16.45;8.25;;;-0.90;99.90;;;;;;4993563;28;20069;-66
2021/01/25 02:49:12;;;;;;;17.98;7.10;;;-1.00;99.90;;;;;;4993475;28;20034;-65
2021/01/25 02:51:37;;;;;;;15.57;6.50;;;-1.10;99.90;;;;;;4993251;28;20022;-66
2021/01/25 02:54:03;;;;;;;14.27;6.25;;;-1.30;99.90;;;;;;4992739;28;20042;-65
2021/01/25 02:56:29;;;;;;;17.80;6.35;;;-1.40;99.90;;;;;;4991860;28;20026;-66
2021/01/25 02:58:55;;;;;;;14.38;6.22;;;-1.50;99.90;;;;;;4993498;28;20404;-65
2021/01/25 03:01:20;;;;;;;17.05;7.00;;;-1.40;99.90;;;;;;4993024;28;20029;-65
2021/01/25 03:03:47;;;;;;;13.73;5.53;;;-1.40;99.90;;;;;;4992604;28;20029;-65
2021/01/25 03:06:13;;;;;;;14.60;6.60;;;-1.30;99.90;;;;;;4992822;28;20033;-66
2021/01/25 03:08:38;;;;;;;20.20;10.18;;;-1.30;99.90;;;;;;4992736;28;20109;-65
2021/01/25 03:11:04;;;;;;;23.05;7.43;;;-1.20;99.90;;;;;;4992783;28;20458;-65
2021/01/25 03:13:29;;;;;;;19.20;8.70;;;-1.20;99.90;;;;;;4992609;28;20191;-65
2021/01/25 03:15:58;;;;;;;16.33;8.02;;;-1.50;99.90;;;;;;4992588;28;20397;-66
2021/01/25 03:18:25;;;;;;;16.48;7.20;;;-1.50;99.90;;;;;;4991342;28;20022;-66
2021/01/25 03:20:51;;;;;;;14.48;6.22;;;-1.70;99.90;;;;;;4992590;28;20469;-66
2021/01/25 03:23:17;;;;;;;13.40;5.82;;;-1.80;99.90;;;;;;4990994;28;20041;-65
2021/01/25 03:25:44;;;;;;;15.13;7.47;;;-1.80;99.90;;;;;;4992373;28;20037;-66
2021/01/25 03:28:10;;;;;;;13.35;5.60;;;-1.60;99.90;;;;;;4992444;28;20027;-66
2021/01/25 03:30:36;;;;;;;15.63;7.13;;;-1.70;99.90;;;;;;4992364;28;20030;-65
2021/01/25 03:33:02;;;;;;;14.68;5.53;;;-1.60;99.90;;;;;;4991758;28;20122;-65
2021/01/25 03:35:27;;;;;;;16.98;7.95;;;-1.70;99.90;;;;;;4992165;28;20018;-65
2021/01/25 03:37:53;;;;;;;16.90;7.13;;;-1.60;99.90;;;;;;4991748;28;20026;-65
2021/01/25 03:40:18;;;;;;;16.27;7.28;;;-1.60;99.90;;;;;;4992275;28;20118;-66
2021/01/25 03:42:44;;;;;;;17.02;7.18;;;-1.70;99.90;;;;;;4991741;28;20537;-65
2021/01/25 03:45:09;;;;;;;13.63;6.45;;;-1.80;99.90;;;;;;4992108;28;20145;-66
2021/01/25 03:47:35;;;;;;;14.40;5.55;;;-1.90;99.90;;;;;;4992160;28;20508;-65
2021/01/25 03:50:01;;;;;;;13.85;6.00;;;-1.80;99.90;;;;;;4992066;28;20057;-65
2021/01/25 03:52:26;;;;;;;14.40;6.13;;;-1.90;99.90;;;;;;4992097;28;20026;-65
2021/01/25 03:54:52;;;;;;;12.57;5.68;;;-1.90;99.90;;;;;;4991823;28;20061;-65
2021/01/25 03:57:18;;;;;;;15.68;6.68;;;-2.10;99.90;;;;;;4996836;28;20452;-65
2021/01/25 03:59:43;;;;;;;12.70;5.50;;;-2.10;99.90;;;;;;5008404;28;20034;-65
2021/01/25 04:02:10;;;;;;;12.18;4.65;;;-2.10;99.90;;;;;;5001969;28;20118;-65
2021/01/25 04:04:36;;;;;;;13.40;5.22;;;-2.00;99.90;;;;;;5000748;28;20018;-68
2021/01/25 04:07:01;;;;;;;12.80;5.50;;;-2.00;99.90;;;;;;4997976;28;20041;-65
2021/01/25 04:09:27;;;;;;;14.90;5.25;;;-1.90;99.90;;;;;;4986507;28;20014;-66
2021/01/25 04:11:52;;;;;;;12.93;5.57;;;-1.90;99.90;;;;;;4982847;28;20025;-65
2021/01/25 04:14:18;;;;;;;12.30;5.15;;;-1.80;99.90;;;;;;4990148;28;20018;-65
2021/01/25 04:16:43;;;;;;;15.07;6.13;;;-1.90;99.90;;;;;;4991781;28;20417;-66
2021/01/25 04:19:09;;;;;;;11.73;5.15;;;-2.00;99.90;;;;;;4991466;28;20474;-65
2021/01/25 04:21:34;;;;;;;13.13;5.68;;;-2.00;99.90;;;;;;4990209;28;20109;-65
2021/01/25 04:24:00;;;;;;;13.60;4.90;;;-2.00;99.90;;;;;;4991483;28;20030;-65
2021/01/25 04:26:25;;;;;;;12.05;5.00;;;-2.00;99.90;;;;;;4991540;28;20036;-65
2021/01/25 04:28:52;;;;;;;14.93;5.40;;;-1.90;99.90;;;;;;4991489;28;20030;-65
2021/01/25 04:31:17;;;;;;;14.27;7.82;;;-1.80;99.90;;;;;;4991410;28;20038;-66
2021/01/25 04:33:43;;;;;;;12.93;5.55;;;-1.90;99.90;;;;;;4990825;28;20030;-66
2021/01/25 04:36:09;;;;;;;15.02;6.18;;;-1.90;99.90;;;;;;4991284;28;21059;-66
2021/01/25 04:38:35;;;;;;;13.30;5.90;;;-2.20;99.90;;;;;;4991529;28;20018;-65
2021/01/25 04:41:01;;;;;;;16.13;7.63;;;-2.20;99.90;;;;;;4993021;28;20022;-65
2021/01/25 04:43:28;;;;;;;16.83;7.43;;;-2.20;99.90;;;;;;4994937;28;20023;-66
2021/01/25 04:45:54;;;;;;;17.25;8.27;;;-2.00;99.90;;;;;;4985660;28;20031;-65
2021/01/25 04:48:22;;;;;;;18.98;8.35;;;-1.90;99.90;;;;;;4994869;28;20057;-65
2021/01/25 04:50:49;;;;;;;17.35;8.93;;;-2.00;99.90;;;;;;4993946;28;20038;-65
2021/01/25 04:53:15;;;;;;;37.25;22.48;;;-2.10;99.90;;;;;;4995263;28;20027;-66
2021/01/25 04:55:42;;;;;;;18.42;9.27;;;-2.20;99.90;;;;;;5014867;28;20037;-65
2021/01/25 04:58:08;;;;;;;15.80;6.70;;;-2.20;99.90;;;;;;5004047;28;20117;-65
2021/01/25 05:00:33;;;;;;;21.02;11.52;;;-2.20;99.90;;;;;;5005298;28;20030;-66
2021/01/25 05:02:59;;;;;;;14.90;7.07;;;-2.20;99.90;;;;;;5003215;28;20026;-66
2021/01/25 05:05:24;;;;;;;15.02;6.07;;;-2.20;99.90;;;;;;5004615;28;20365;-65
2021/01/25 05:07:50;;;;;;;17.60;6.28;;;-2.40;99.90;;;;;;5007809;28;20096;-66
2021/01/25 05:10:16;;;;;;;14.80;6.57;;;-2.40;99.90;;;;;;5014557;28;20029;-65
2021/01/25 05:12:46;;;;;;;13.27;5.95;;;-2.30;99.90;;;;;;5013797;28;20037;-65
2021/01/25 05:15:30;;;;;;;15.65;6.85;;;-2.30;99.90;;;;;;5014517;28;20477;-65
2021/01/25 05:18:00;;;;;;;19.60;9.55;;;-2.20;99.90;;;;;;5014475;28;20105;-65
2021/01/25 05:20:30;;;;;;;16.30;7.45;;;-2.20;99.90;;;;;;5002598;28;20065;-65
2021/01/25 05:22:58;;;;;;;19.33;8.82;;;-2.30;99.90;;;;;;4994593;28;20026;-65
2021/01/25 05:25:29;;;;;;;17.90;7.35;;;-2.40;99.90;;;;;;4994900;28;20424;-65
2021/01/25 05:27:56;;;;;;;29.08;15.70;;;-2.30;99.90;;;;;;4994889;28;20493;-65
2021/01/25 05:30:22;;;;;;;18.25;8.73;;;-2.30;99.90;;;;;;4994710;28;20034;-65
2021/01/25 05:32:58;;;;;;;17.98;9.50;;;-2.20;99.90;;;;;;4994568;28;20026;-65
2021/01/25 05:35:30;;;;;;;19.88;10.55;;;-2.30;99.90;;;;;;4987179;28;20058;-65
2021/01/25 05:38:00;;;;;;;18.75;8.90;;;-2.40;99.90;;;;;;4986248;28;20100;-65
2021/01/25 05:40:28;;;;;;;15.77;7.45;;;-2.60;99.90;;;;;;4994352;28;20026;-65
2021/01/25 05:42:55;;;;;;;15.05;7.50;;;-2.80;99.90;;;;;;4994167;28;20030;-65
2021/01/25 05:45:22;;;;;;;16.67;8.50;;;-2.60;99.90;;;;;;4994256;28;20050;-66
2021/01/25 05:47:55;;;;;;;17.63;8.95;;;-2.40;99.90;;;;;;4993020;28;20029;-65
2021/01/25 05:50:25;;;;;;;20.88;12.20;;;-2.50;99.90;;;;;;4994133;28;20040;-65
2021/01/25 05:52:52;;;;;;;17.42;8.38;;;-2.60;99.90;;;;;;4986702;28;20027;-65
2021/01/25 05:55:19;;;;;;;17.40;7.85;;;-2.60;99.90;;;;;;4987609;28;20113;-65
2021/01/25 05:57:44;;;;;;;20.98;12.60;;;-2.50;99.90;;;;;;4994020;28;20041;-65
2021/01/25 06:00:10;;;;;;;14.52;7.32;;;-2.50;99.90;;;;;;5001617;28;20489;-65
2021/01/25 06:02:39;;;;;;;28.98;16.75;;;-2.50;99.90;;;;;;4995461;28;20034;-66
2021/01/25 06:05:06;;;;;;;20.33;11.32;;;-2.40;99.90;;;;;;4981261;28;20019;-66
2021/01/25 06:07:33;;;;;;;21.55;12.68;;;-2.40;99.90;;;;;;4974587;28;20042;-66
2021/01/25 06:10:03;;;;;;;18.17;10.77;;;-2.40;99.90;;;;;;4999963;28;20084;-66
2021/01/25 06:12:52;;;;;;;19.08;8.98;;;-2.40;99.90;;;;;;5013104;28;20030;-66
2021/01/25 06:15:22;;;;;;;19.30;10.00;;;-2.40;99.90;;;;;;5012254;28;20389;-66
2021/01/25 06:17:49;;;;;;;9.23;4.40;;;-2.40;99.90;;;;;;5011965;28;20025;-66
2021/01/25 06:20:17;;;;;;;17.20;7.82;;;-2.50;99.90;;;;;;5013168;28;20235;-65
2021/01/25 06:22:45;;;;;;;23.17;11.52;;;-2.60;99.90;;;;;;5012657;28;20042;-66
2021/01/25 06:25:12;;;;;;;17.15;7.63;;;-2.60;99.90;;;;;;5013025;28;20650;-66
2021/01/25 06:27:40;;;;;;;15.23;7.25;;;-2.70;99.90;;;;;;5013230;28;20504;-66
2021/01/25 06:30:06;;;;;;;18.20;9.60;;;-2.80;99.90;;;;;;5011900;28;20030;-66
2021/01/25 06:32:33;;;;;;;17.70;8.13;;;-2.80;99.90;;;;;;5012692;28;20030;-65
2021/01/25 06:35:03;;;;;;;18.48;7.35;;;-2.80;99.90;;;;;;5000168;28;20029;-64
2021/01/25 06:37:29;;;;;;;18.88;9.75;;;-2.80;99.90;;;;;;4982499;28;20030;-64
2021/01/25 06:39:57;;;;;;;15.02;6.85;;;-2.80;99.90;;;;;;4990173;28;20081;-65
2021/01/25 06:42:31;;;;;;;15.18;7.15;;;-2.70;99.90;;;;;;4992530;28;20023;-64
2021/01/25 06:45:02;;;;;;;16.35;5.88;;;-2.70;99.90;;;;;;4993272;28;20077;-66
2021/01/25 06:47:29;;;;;;;19.90;6.78;;;-2.80;99.90;;;;;;4993209;28;20126;-66
2021/01/25 06:49:58;;;;;;;14.45;6.00;;;-3.00;99.90;;;;;;4993183;28;20105;-66
2021/01/25 06:52:32;;;;;;;21.23;6.68;;;-3.20;99.90;;;;;;4992893;28;20025;-66
2021/01/25 06:55:01;;;;;;;12.77;6.00;;;-3.00;99.90;;;;;;4993032;28;20068;-66
2021/01/25 06:57:27;;;;;;;15.05;7.35;;;-2.90;99.90;;;;;;4984605;28;20058;-66
2021/01/25 06:59:54;;;;;;;14.68;6.80;;;-2.70;99.90;;;;;;4981440;28;20077;-66
2021/01/25 07:02:21;;;;;;;16.50;6.95;;;-2.60;99.90;;;;;;4972078;28;20023;-66
2021/01/25 07:04:46;;;;;;;25.95;10.55;;;-2.70;99.90;;;;;;4973544;28;20037;-65
2021/01/25 07:07:27;;;;;;;37.35;15.65;;;-2.70;99.90;;;;;;4984368;28;20444;-66
2021/01/25 07:09:55;;;;;;;14.32;6.32;;;-2.60;99.90;;;;;;4993133;28;20061;-66
2021/01/25 07:12:22;;;;;;;14.73;5.95;;;-2.60;99.90;;;;;;4992126;28;20099;-66
2021/01/25 07:14:48;;;;;;;21.38;9.30;;;-2.50;99.90;;;;;;4993046;28;20042;-66
2021/01/25 07:17:15;;;;;;;38.35;17.85;;;-2.40;99.90;;;;;;4987310;28;20073;-66
2021/01/25 07:19:40;;;;;;;19.25;7.32;;;-2.40;99.90;;;;;;4992573;28;20034;-66
2021/01/25 07:22:08;;;;;;;19.13;7.53;;;-2.40;99.90;;;;;;4992333;28;20038;-66
2021/01/25 07:24:35;;;;;;;17.33;7.80;;;-2.30;99.90;;;;;;4992462;28;20022;-66
2021/01/25 07:27:01;;;;;;;17.52;7.40;;;-2.30;99.90;;;;;;4992456;28;20026;-65
2021/01/25 07:29:28;;;;;;;16.42;7.05;;;-2.30;99.90;;;;;;4992354;28;20037;-66
2021/01/25 07:31:54;;;;;;;16.55;6.57;;;-2.30;99.90;;;;;;4992151;28;20058;-66
2021/01/25 07:34:20;;;;;;;18.98;8.20;;;-2.20;99.90;;;;;;4991206;28;20026;-66
2021/01/25 07:36:46;;;;;;;15.77;7.30;;;-2.20;99.90;;;;;;4989232;28;20027;-66
2021/01/25 07:39:14;;;;;;;19.77;8.93;;;-2.20;99.90;;;;;;4989227;28;20019;-66
2021/01/25 07:41:40;;;;;;;18.27;9.60;;;-2.20;99.90;;;;;;4990426;28;20025;-66
2021/01/25 07:44:07;;;;;;;23.48;12.07;;;-2.00;99.90;;;;;;4990248;28;20084;-66
2021/01/25 07:46:34;;;;;;;19.58;7.57;;;-1.90;99.90;;;;;;4990454;28;20030;-66
2021/01/25 07:48:59;;;;;;;17.38;8.98;;;-1.90;99.90;;;;;;4989565;28;20032;-66
2021/01/25 07:51:27;;;;;;;31.65;14.93;;;-1.90;99.90;;;;;;4992112;28;20030;-66
2021/01/25 07:53:54;;;;;;;16.52;7.55;;;-1.80;99.90;;;;;;4991475;28;20030;-66
2021/01/25 07:56:25;;;;;;;37.03;18.80;;;-1.80;99.90;;;;;;4991988;28;20026;-66
2021/01/25 07:59:04;;;;;;;57.05;30.65;;;-1.90;99.90;;;;;;4991992;28;20034;-66
2021/01/25 08:01:36;;;;;;;21.73;10.50;;;-1.80;99.90;;;;;;4991886;28;20050;-65
2021/01/25 08:04:04;;;;;;;45.85;21.80;;;-1.70;99.90;;;;;;4990356;28;20117;-66
2021/01/25 08:06:36;;;;;;;56.45;25.90;;;-1.60;99.90;;;;;;4991840;28;20026;-66
2021/01/25 08:09:12;;;;;;;18.15;8.77;;;-1.50;99.90;;;;;;4991812;28;20030;-66
2021/01/25 08:11:40;;;;;;;19.23;10.18;;;-1.30;99.90;;;;;;4991636;28;20044;-66
2021/01/25 08:14:32;;;;;;;16.65;6.78;;;-1.10;99.90;;;;;;4991514;28;20026;-66
2021/01/25 08:17:03;;;;;;;18.23;6.35;;;-1.00;99.90;;;;;;4991607;28;20381;-66
2021/01/25 08:19:37;;;;;;;12.65;6.25;;;-1.10;99.90;;;;;;4989639;28;20022;-66
2021/01/25 08:22:09;;;;;;;18.45;7.07;;;-1.00;99.90;;;;;;4991347;28;20024;-66
2021/01/25 08:24:35;;;;;;;17.33;8.00;;;-1.00;99.90;;;;;;4990299;28;20023;-66
2021/01/25 08:27:13;;;;;;;19.65;8.65;;;-0.80;99.90;;;;;;4991531;28;20031;-66
2021/01/25 08:29:40;;;;;;;18.08;9.57;;;-0.70;99.90;;;;;;4991652;28;20037;-66
2021/01/25 08:32:24;;;;;;;21.73;10.02;;;-0.70;99.90;;;;;;4991264;28;20070;-66
2021/01/25 08:35:02;;;;;;;20.42;8.55;;;-0.80;99.90;;;;;;4991406;28;20019;-66
2021/01/25 08:37:31;;;;;;;20.58;8.80;;;-0.80;99.90;;;;;;4991377;28;20025;-66
2021/01/25 08:39:57;;;;;;;28.42;11.10;;;-0.80;99.90;;;;;;4991756;28;20533;-66
2021/01/25 08:42:31;;;;;;;22.77;9.98;;;-0.70;99.90;;;;;;4991197;28;20481;-65
2021/01/25 08:45:08;;;;;;;25.63;10.65;;;-0.80;99.90;;;;;;4995235;28;20053;-66
2021/01/25 08:47:34;;;;;;;23.67;11.20;;;-0.70;99.90;;;;;;4997304;28;20015;-66
2021/01/25 08:50:01;;;;;;;24.00;11.40;;;-0.70;99.90;;;;;;4999572;28;20017;-65
2021/01/25 08:52:39;;;;;;;23.95;10.75;;;-0.60;99.90;;;;;;5000580;28;20477;-66
2021/01/25 08:55:37;;;;;;;27.25;11.30;;;-0.60;99.90;;;;;;5000851;28;20068;-65
2021/01/25 08:58:18;;;;;;;26.75;11.18;;;-0.30;99.90;;;;;;4986520;28;20030;-65
2021/01/25 09:00:46;;;;;;;24.35;11.23;;;-0.30;99.90;;;;;;4999845;28;20018;-66
2021/01/25 09:03:12;;;;;;;24.23;10.70;;;-0.30;99.90;;;;;;4996440;28;20338;-66
2021/01/25 09:05:38;;;;;;;24.20;11.25;;;-0.10;99.90;;;;;;5001596;28;20018;-66
2021/01/25 09:08:04;;;;;;;23.65;11.75;;;-0.20;99.90;;;;;;5010669;28;20636;-66
2021/01/25 09:10:30;;;;;;;29.88;13.07;;;-0.30;99.90;;;;;;5010823;28;20110;-66
2021/01/25 09:12:55;;;;;;;27.58;12.43;;;-0.10;99.90;;;;;;4998300;28;20033;-66
2021/01/25 09:15:22;;;;;;;27.52;13.00;;;0.10;99.90;;;;;;4995723;28;20065;-66
2021/01/25 09:17:48;;;;;;;24.58;12.93;;;0.40;99.90;;;;;;4991193;28;20030;-66
2021/01/25 09:20:15;;;;;;;25.40;12.90;;;0.40;99.90;;;;;;4990063;28;20022;-66
2021/01/25 09:22:40;;;;;;;24.95;12.30;;;0.60;99.90;;;;;;4990993;28;20092;-66
2021/01/25 09:25:08;;;;;;;24.20;11.23;;;0.80;99.90;;;;;;4991141;28;20513;-66
2021/01/25 09:27:33;;;;;;;30.00;14.93;;;1.00;99.90;;;;;;4991070;28;20109;-66
2021/01/25 09:29:59;;;;;;;25.13;11.73;;;1.10;99.90;;;;;;4989838;28;20114;-65
2021/01/25 09:32:25;;;;;;;23.55;11.25;;;1.20;99.90;;;;;;4993805;28;20385;-66
2021/01/25 09:34:50;;;;;;;26.38;12.05;;;1.40;99.90;;;;;;5029065;28;20033;-66
2021/01/25 09:37:16;;;;;;;21.80;10.95;;;1.50;99.90;;;;;;5014305;28;20447;-66
2021/01/25 09:39:41;;;;;;;25.30;12.23;;;1.40;99.90;;;;;;5014210;28;20485;-66
2021/01/25 09:42:08;;;;;;;24.17;11.85;;;1.60;99.90;;;;;;5006992;28;20037;-66
2021/01/25 09:44:35;;;;;;;23.67;11.82;;;1.40;99.90;;;;;;4989221;28;20026;-66
2021/01/25 09:47:01;;;;;;;21.48;11.52;;;1.60;99.90;;;;;;5013739;28;20065;-66
2021/01/25 09:49:27;;;;;;;20.88;10.65;;;1.50;99.90;;;;;;5014020;28;20057;-67
2021/01/25 09:51:52;;;;;;;26.08;12.25;;;1.50;99.60;;;;;;5013546;28;20096;-66
2021/01/25 09:54:18;;;;;;;25.52;12.75;;;1.40;99.90;;;;;;5003649;28;20036;-66
2021/01/25 09:56:44;;;;;;;24.25;11.55;;;1.40;99.90;;;;;;4994198;28;20037;-66
2021/01/25 09:59:10;;;;;;;23.65;12.00;;;1.40;99.90;;;;;;4994144;28;20497;-65
2021/01/25 10:01:36;;;;;;;27.30;12.32;;;1.50;99.90;;;;;;4994108;28;20031;-66
2021/01/25 10:04:02;;;;;;;21.85;10.90;;;1.40;99.90;;;;;;4993932;28;20675;-66
2021/01/25 10:06:30;;;;;;;19.38;9.77;;;1.70;99.90;;;;;;4994037;28;20062;-66
2021/01/25 10:08:57;;;;;;;19.88;9.93;;;2.00;99.90;;;;;;4994013;28;20145;-66
2021/01/25 10:11:24;;;;;;;21.60;10.85;;;2.00;99.50;;;;;;4993944;28;20026;-65
2021/01/25 10:13:50;;;;;;;20.48;10.02;;;2.00;99.90;;;;;;4993494;28;20031;-66
2021/01/25 10:16:16;;;;;;;24.33;11.48;;;1.90;99.90;;;;;;4993875;28;20026;-66
2021/01/25 10:18:41;;;;;;;19.98;10.57;;;1.90;99.90;;;;;;4993871;28;20477;-66
2021/01/25 10:21:07;;;;;;;19.05;10.05;;;2.10;99.90;;;;;;4993829;28;20473;-65
2021/01/25 10:23:33;;;;;;;18.83;10.45;;;2.00;99.60;;;;;;4993468;28;20030;-66
2021/01/25 10:25:59;;;;;;;20.13;10.07;;;2.00;99.90;;;;;;4990559;28;20105;-66
2021/01/25 10:28:25;;;;;;;22.15;10.25;;;2.20;99.60;;;;;;4983662;28;20030;-65
2021/01/25 10:30:51;;;;;;;20.92;10.68;;;2.20;99.80;;;;;;4993637;28;20117;-65
2021/01/25 10:33:16;;;;;;;22.02;10.55;;;2.10;99.90;;;;;;4993241;28;20842;-65
2021/01/25 10:35:42;;;;;;;19.30;9.57;;;2.20;99.40;;;;;;4993173;28;20540;-65
2021/01/25 10:38:08;;;;;;;17.88;9.00;;;2.40;99.90;;;;;;4993415;28;20030;-65
2021/01/25 10:40:34;;;;;;;17.70;9.57;;;2.50;99.50;;;;;;4993250;28;20390;-65
2021/01/25 10:42:59;;;;;;;22.77;9.80;;;2.60;99.20;;;;;;4992175;28;20036;-65
2021/01/25 10:45:25;;;;;;;19.90;10.13;;;2.60;99.60;;;;;;4993199;28;20038;-65
2021/01/25 10:47:51;;;;;;;18.00;9.10;;;2.70;99.00;;;;;;4993892;28;20393;-64
2021/01/25 10:50:16;;;;;;;17.30;8.75;;;2.80;98.50;;;;;;4993152;28;20374;-71
2021/01/25 10:52:45;;;;;;;20.77;9.55;;;2.80;98.50;;;;;;4992887;28;20449;-65
2021/01/25 10:55:12;;;;;;;19.88;10.43;;;2.80;98.70;;;;;;4992696;28;20041;-65
2021/01/25 10:57:38;;;;;;;17.67;10.18;;;2.80;98.70;;;;;;5023189;28;20050;-65
2021/01/25 11:00:06;;;;;;;17.67;9.80;;;3.00;97.80;;;;;;5024540;28;20622;-65
2021/01/25 11:02:32;;;;;;;21.42;9.98;;;3.00;97.90;;;;;;4992720;28;20088;-64
2021/01/25 11:04:57;;;;;;;23.00;10.23;;;2.90;98.40;;;;;;4992898;28;20109;-65
2021/01/25 11:07:23;;;;;;;17.23;9.48;;;2.70;98.50;;;;;;4992894;28;20073;-65
2021/01/25 11:09:48;;;;;;;21.25;10.00;;;2.80;98.70;;;;;;4992822;28;20105;-64
2021/01/25 11:12:14;;;;;;;17.73;9.27;;;2.90;98.80;;;;;;4992585;28;20018;-64
2021/01/25 11:14:40;;;;;;;18.90;9.82;;;3.00;98.10;;;;;;4992694;28;20027;-63
2021/01/25 11:17:05;;;;;;;20.05;9.40;;;3.10;99.00;;;;;;4992758;28;20034;-66
2021/01/25 11:19:31;;;;;;;17.17;9.70;;;3.10;98.20;;;;;;4993021;28;20037;-65
2021/01/25 11:21:56;;;;;;;19.42;9.73;;;3.20;97.80;;;;;;4992400;28;20081;-65
2021/01/25 11:24:22;;;;;;;21.38;10.57;;;3.30;98.00;;;;;;4992472;28;20326;-64
2021/01/25 11:26:47;;;;;;;15.40;8.32;;;3.30;98.00;;;;;;4992472;28;20041;-65
2021/01/25 11:29:15;;;;;;;18.27;9.85;;;3.50;97.70;;;;;;4992508;28;20076;-65
2021/01/25 11:31:41;;;;;;;16.48;8.63;;;3.70;96.60;;;;;;4992344;28;20587;-65
2021/01/25 11:34:06;;;;;;;16.67;9.65;;;3.50;96.40;;;;;;4992193;28;20077;-64
2021/01/25 11:36:32;;;;;;;17.98;9.50;;;3.50;97.20;;;;;;4992346;28;20069;-65
2021/01/25 11:38:57;;;;;;;18.00;9.57;;;3.50;96.10;;;;;;4992319;28;20382;-65
2021/01/25 11:41:23;;;;;;;17.75;9.73;;;3.40;96.90;;;;;;4992343;28;20093;-65
2021/01/25 11:43:49;;;;;;;19.92;9.70;;;3.20;96.90;;;;;;4991950;28;20034;-65
2021/01/25 11:46:14;;;;;;;16.20;9.80;;;3.40;96.10;;;;;;4992589;28;20037;-64
2021/01/25 11:48:40;;;;;;;17.08;9.35;;;3.50;96.80;;;;;;4992235;28;20034;-66
2021/01/25 11:51:05;;;;;;;21.35;9.80;;;3.50;97.00;;;;;;4992185;28;20034;-64
2021/01/25 11:53:31;;;;;;;17.65;9.85;;;3.40;96.90;;;;;;4991687;28;20035;-65
2021/01/25 11:55:58;;;;;;;17.83;9.45;;;3.30;97.30;;;;;;4992057;28;20026;-65
2021/01/25 11:58:23;;;;;;;18.42;10.00;;;3.40;97.60;;;;;;4992103;28;20649;-65
2021/01/25 12:00:49;;;;;;;18.20;10.35;;;3.30;97.90;;;;;;4992080;28;20022;-65
2021/01/25 12:03:14;;;;;;;23.02;10.65;;;3.50;97.80;;;;;;4992236;28;20034;-65
2021/01/25 12:05:40;;;;;;;19.40;9.80;;;3.80;97.70;;;;;;4992136;28;20485;-65
2021/01/25 12:08:05;;;;;;;18.13;10.18;;;3.90;96.40;;;;;;4992141;28;20113;-65
2021/01/25 12:10:31;;;;;;;17.30;9.25;;;3.90;96.50;;;;;;4990949;28;20022;-65
2021/01/25 12:12:56;;;;;;;17.35;9.32;;;3.80;95.90;;;;;;4991752;28;20030;-65
2021/01/25 12:15:22;;;;;;;17.25;9.57;;;3.90;96.60;;;;;;4992163;28;20025;-64
2021/01/25 12:17:48;;;;;;;21.80;10.82;;;3.80;95.80;;;;;;4992039;28;20026;-64
2021/01/25 12:20:14;;;;;;;22.10;9.82;;;3.80;96.60;;;;;;4991771;28;20616;-65
2021/01/25 12:22:40;;;;;;;20.02;10.88;;;3.90;97.00;;;;;;4991379;28;20489;-65
2021/01/25 12:25:06;;;;;;;17.17;9.80;;;4.00;96.80;;;;;;4991668;28;20041;-64
2021/01/25 12:27:31;;;;;;;19.75;10.77;;;3.80;96.40;;;;;;4991569;28;20030;-65
2021/01/25 12:29:57;;;;;;;19.60;11.10;;;3.90;97.00;;;;;;4991642;28;20088;-65
2021/01/25 12:32:23;;;;;;;18.20;9.68;;;4.00;96.10;;;;;;4991332;28;20145;-64
2021/01/25 12:34:50;;;;;;;17.80;10.35;;;3.80;95.60;;;;;;4991386;28;20037;-64
2021/01/25 12:37:16;;;;;;;17.27;9.15;;;4.10;95.80;;;;;;4991388;28;20477;-65